sensor_id;sensor_type;location;lat;lon;timestamp;P1;durP1;ratioP1;P2;durP2;ratioP2
18999;SDS011;9633;50.980;13.850;2023-03-05T00:00:49;20.23;;;6.30;;
18999;SDS011;9633;50.980;13.850;2023-03-05T00:02:22;14.17;;;5.43;;
18999;SDS011;9633;50.980;13.850;2023-03-05T00:03:55;17.00;;;4.87;;
18999;SDS011;9633;50.980;13.850;2023-03-05T00:05:29;13.07;;;3.83;;
18999;SDS011;9633;50.980;13.850;2023-03-05T00:07:04;10.03;;;3.43;;
18999;SDS011;9633;50.980;13.850;2023-03-05T00:08:41;11.47;;;3.87;;
18999;SDS011;9633;50.980;13.850;2023-03-05T00:10:13;14.57;;;4.00;;
18999;SDS011;9633;50.980;13.850;2023-03-05T00:11:46;10.93;;;3.30;;
18999;SDS011;9633;50.980;13.850;2023-03-05T00:13:19;9.00;;;2.60;;
18999;SDS011;9633;50.980;13.850;2023-03-05T00:14:51;12.77;;;2.87;;
18999;SDS011;9633;50.980;13.850;2023-03-05T00:16:25;11.37;;;2.83;;
18999;SDS011;9633;50.980;13.850;2023-03-05T00:17:59;9.77;;;2.83;;
18999;SDS011;9633;50.980;13.850;2023-03-05T00:19:32;14.57;;;3.20;;
18999;SDS011;9633;50.980;13.850;2023-03-05T00:21:12;8.97;;;2.80;;
18999;SDS011;9633;50.980;13.850;2023-03-05T00:22:49;9.97;;;2.70;;
18999;SDS011;9633;50.980;13.850;2023-03-05T00:24:23;11.50;;;3.13;;
18999;SDS011;9633;50.980;13.850;2023-03-05T00:25:59;9.93;;;2.90;;
18999;SDS011;9633;50.980;13.850;2023-03-05T00:27:32;12.77;;;2.90;;
18999;SDS011;9633;50.980;13.850;2023-03-05T00:29:06;10.07;;;2.87;;
18999;SDS011;9633;50.980;13.850;2023-03-05T00:30:40;13.03;;;3.17;;
18999;SDS011;9633;50.980;13.850;2023-03-05T00:32:13;10.87;;;3.13;;
18999;SDS011;9633;50.980;13.850;2023-03-05T00:33:50;11.57;;;2.97;;
18999;SDS011;9633;50.980;13.850;2023-03-05T00:35:22;10.97;;;3.07;;
18999;SDS011;9633;50.980;13.850;2023-03-05T00:36:55;15.30;;;3.93;;
18999;SDS011;9633;50.980;13.850;2023-03-05T00:38:28;8.57;;;2.90;;
18999;SDS011;9633;50.980;13.850;2023-03-05T00:40:02;9.03;;;3.23;;
18999;SDS011;9633;50.980;13.850;2023-03-05T00:41:36;11.63;;;3.00;;
18999;SDS011;9633;50.980;13.850;2023-03-05T00:43:09;11.03;;;3.40;;
18999;SDS011;9633;50.980;13.850;2023-03-05T00:44:43;14.57;;;3.50;;
18999;SDS011;9633;50.980;13.850;2023-03-05T00:46:16;11.10;;;2.83;;
18999;SDS011;9633;50.980;13.850;2023-03-05T00:47:48;12.43;;;3.40;;
18999;SDS011;9633;50.980;13.850;2023-03-05T00:49:21;9.37;;;3.00;;
18999;SDS011;9633;50.980;13.850;2023-03-05T00:50:54;10.23;;;2.90;;
18999;SDS011;9633;50.980;13.850;2023-03-05T00:52:28;10.47;;;3.60;;
18999;SDS011;9633;50.980;13.850;2023-03-05T00:54:02;8.17;;;3.37;;
18999;SDS011;9633;50.980;13.850;2023-03-05T00:55:36;14.13;;;3.43;;
18999;SDS011;9633;50.980;13.850;2023-03-05T00:57:10;8.73;;;3.37;;
18999;SDS011;9633;50.980;13.850;2023-03-05T00:58:43;13.33;;;3.50;;
18999;SDS011;9633;50.980;13.850;2023-03-05T01:00:15;11.67;;;3.30;;
18999;SDS011;9633;50.980;13.850;2023-03-05T01:01:49;10.90;;;3.37;;
18999;SDS011;9633;50.980;13.850;2023-03-05T01:03:22;12.53;;;3.40;;
18999;SDS011;9633;50.980;13.850;2023-03-05T01:04:54;13.50;;;3.30;;
18999;SDS011;9633;50.980;13.850;2023-03-05T01:06:27;8.40;;;3.10;;
18999;SDS011;9633;50.980;13.850;2023-03-05T01:07:59;9.93;;;3.43;;
18999;SDS011;9633;50.980;13.850;2023-03-05T01:09:33;12.40;;;3.30;;
18999;SDS011;9633;50.980;13.850;2023-03-05T01:11:07;11.47;;;3.20;;
18999;SDS011;9633;50.980;13.850;2023-03-05T01:12:41;11.63;;;3.10;;
18999;SDS011;9633;50.980;13.850;2023-03-05T01:14:15;11.00;;;3.33;;
18999;SDS011;9633;50.980;13.850;2023-03-05T01:15:48;11.83;;;3.30;;
18999;SDS011;9633;50.980;13.850;2023-03-05T01:17:21;10.40;;;3.37;;
18999;SDS011;9633;50.980;13.850;2023-03-05T01:18:55;9.40;;;2.93;;
18999;SDS011;9633;50.980;13.850;2023-03-05T01:20:28;11.07;;;3.20;;
18999;SDS011;9633;50.980;13.850;2023-03-05T01:22:00;11.07;;;3.13;;
18999;SDS011;9633;50.980;13.850;2023-03-05T01:23:33;11.07;;;3.33;;
18999;SDS011;9633;50.980;13.850;2023-03-05T01:25:08;12.77;;;3.17;;
18999;SDS011;9633;50.980;13.850;2023-03-05T01:26:42;10.07;;;3.40;;
18999;SDS011;9633;50.980;13.850;2023-03-05T01:28:15;15.53;;;3.90;;
18999;SDS011;9633;50.980;13.850;2023-03-05T01:29:48;13.27;;;3.27;;
18999;SDS011;9633;50.980;13.850;2023-03-05T01:31:22;11.00;;;3.30;;
18999;SDS011;9633;50.980;13.850;2023-03-05T01:32:55;8.70;;;3.20;;
18999;SDS011;9633;50.980;13.850;2023-03-05T01:34:28;12.13;;;3.17;;
18999;SDS011;9633;50.980;13.850;2023-03-05T01:36:01;11.80;;;3.60;;
18999;SDS011;9633;50.980;13.850;2023-03-05T01:37:37;12.57;;;3.87;;
18999;SDS011;9633;50.980;13.850;2023-03-05T01:39:11;16.07;;;3.40;;
18999;SDS011;9633;50.980;13.850;2023-03-05T01:40:44;7.53;;;2.70;;
18999;SDS011;9633;50.980;13.850;2023-03-05T01:42:19;11.97;;;2.90;;
18999;SDS011;9633;50.980;13.850;2023-03-05T01:43:52;6.30;;;2.43;;
18999;SDS011;9633;50.980;13.850;2023-03-05T01:45:25;12.27;;;2.87;;
18999;SDS011;9633;50.980;13.850;2023-03-05T01:47:01;14.10;;;2.60;;
18999;SDS011;9633;50.980;13.850;2023-03-05T01:48:34;9.63;;;2.40;;
18999;SDS011;9633;50.980;13.850;2023-03-05T01:50:08;9.43;;;2.83;;
18999;SDS011;9633;50.980;13.850;2023-03-05T01:51:44;10.03;;;2.73;;
18999;SDS011;9633;50.980;13.850;2023-03-05T01:53:25;9.00;;;2.53;;
18999;SDS011;9633;50.980;13.850;2023-03-05T01:55:00;10.20;;;2.70;;
18999;SDS011;9633;50.980;13.850;2023-03-05T01:56:35;13.10;;;3.70;;
18999;SDS011;9633;50.980;13.850;2023-03-05T01:58:12;12.73;;;3.00;;
18999;SDS011;9633;50.980;13.850;2023-03-05T01:59:46;13.67;;;2.67;;
18999;SDS011;9633;50.980;13.850;2023-03-05T02:01:22;9.00;;;2.50;;
18999;SDS011;9633;50.980;13.850;2023-03-05T02:02:54;11.47;;;2.40;;
18999;SDS011;9633;50.980;13.850;2023-03-05T02:04:31;15.37;;;3.10;;
18999;SDS011;9633;50.980;13.850;2023-03-05T02:06:08;12.00;;;3.03;;
18999;SDS011;9633;50.980;13.850;2023-03-05T02:07:41;10.13;;;2.67;;
18999;SDS011;9633;50.980;13.850;2023-03-05T02:09:15;12.77;;;2.40;;
18999;SDS011;9633;50.980;13.850;2023-03-05T02:10:49;9.47;;;2.37;;
18999;SDS011;9633;50.980;13.850;2023-03-05T02:12:26;9.40;;;2.10;;
18999;SDS011;9633;50.980;13.850;2023-03-05T02:14:01;11.20;;;2.67;;
18999;SDS011;9633;50.980;13.850;2023-03-05T02:15:35;15.13;;;2.60;;
18999;SDS011;9633;50.980;13.850;2023-03-05T02:17:09;9.40;;;2.57;;
18999;SDS011;9633;50.980;13.850;2023-03-05T02:18:43;11.80;;;2.23;;
18999;SDS011;9633;50.980;13.850;2023-03-05T02:20:16;12.23;;;2.63;;
18999;SDS011;9633;50.980;13.850;2023-03-05T02:21:53;9.27;;;2.50;;
18999;SDS011;9633;50.980;13.850;2023-03-05T02:23:27;10.07;;;2.07;;
18999;SDS011;9633;50.980;13.850;2023-03-05T02:25:00;10.00;;;2.40;;
18999;SDS011;9633;50.980;13.850;2023-03-05T02:26:34;13.37;;;2.87;;
18999;SDS011;9633;50.980;13.850;2023-03-05T02:28:08;10.67;;;2.70;;
18999;SDS011;9633;50.980;13.850;2023-03-05T02:29:46;14.03;;;2.77;;
18999;SDS011;9633;50.980;13.850;2023-03-05T02:31:20;10.90;;;2.90;;
18999;SDS011;9633;50.980;13.850;2023-03-05T02:32:55;9.33;;;2.20;;
18999;SDS011;9633;50.980;13.850;2023-03-05T02:34:29;10.30;;;2.73;;
18999;SDS011;9633;50.980;13.850;2023-03-05T02:36:03;13.83;;;2.93;;
18999;SDS011;9633;50.980;13.850;2023-03-05T02:37:39;13.63;;;3.80;;
18999;SDS011;9633;50.980;13.850;2023-03-05T02:39:13;9.20;;;3.57;;
18999;SDS011;9633;50.980;13.850;2023-03-05T02:40:46;17.27;;;5.53;;
18999;SDS011;9633;50.980;13.850;2023-03-05T02:42:19;15.70;;;4.40;;
18999;SDS011;9633;50.980;13.850;2023-03-05T02:43:53;8.27;;;2.87;;
18999;SDS011;9633;50.980;13.850;2023-03-05T02:45:25;10.03;;;2.80;;
18999;SDS011;9633;50.980;13.850;2023-03-05T02:46:58;9.07;;;2.83;;
18999;SDS011;9633;50.980;13.850;2023-03-05T02:48:30;11.27;;;3.20;;
18999;SDS011;9633;50.980;13.850;2023-03-05T02:50:04;8.60;;;2.63;;
18999;SDS011;9633;50.980;13.850;2023-03-05T02:51:39;12.67;;;2.87;;
18999;SDS011;9633;50.980;13.850;2023-03-05T02:53:14;8.57;;;3.00;;
18999;SDS011;9633;50.980;13.850;2023-03-05T02:54:46;12.17;;;2.60;;
18999;SDS011;9633;50.980;13.850;2023-03-05T02:56:19;10.57;;;3.40;;
18999;SDS011;9633;50.980;13.850;2023-03-05T02:57:53;7.77;;;2.83;;
18999;SDS011;9633;50.980;13.850;2023-03-05T02:59:25;9.83;;;3.23;;
18999;SDS011;9633;50.980;13.850;2023-03-05T03:00:59;10.17;;;3.03;;
18999;SDS011;9633;50.980;13.850;2023-03-05T03:02:32;9.30;;;2.63;;
18999;SDS011;9633;50.980;13.850;2023-03-05T03:04:05;10.43;;;2.90;;
18999;SDS011;9633;50.980;13.850;2023-03-05T03:05:38;14.10;;;3.50;;
18999;SDS011;9633;50.980;13.850;2023-03-05T03:07:12;9.37;;;3.17;;
18999;SDS011;9633;50.980;13.850;2023-03-05T03:08:47;10.93;;;2.70;;
18999;SDS011;9633;50.980;13.850;2023-03-05T03:10:21;10.37;;;2.87;;
18999;SDS011;9633;50.980;13.850;2023-03-05T03:11:54;8.90;;;2.80;;
18999;SDS011;9633;50.980;13.850;2023-03-05T03:13:27;7.20;;;2.73;;
18999;SDS011;9633;50.980;13.850;2023-03-05T03:14:59;6.37;;;2.40;;
18999;SDS011;9633;50.980;13.850;2023-03-05T03:16:32;10.10;;;2.33;;
18999;SDS011;9633;50.980;13.850;2023-03-05T03:18:06;11.50;;;2.60;;
18999;SDS011;9633;50.980;13.850;2023-03-05T03:19:38;6.73;;;2.33;;
18999;SDS011;9633;50.980;13.850;2023-03-05T03:21:15;8.33;;;2.80;;
18999;SDS011;9633;50.980;13.850;2023-03-05T03:22:49;10.40;;;2.87;;
18999;SDS011;9633;50.980;13.850;2023-03-05T03:24:24;8.73;;;2.57;;
18999;SDS011;9633;50.980;13.850;2023-03-05T03:25:57;10.73;;;2.40;;
18999;SDS011;9633;50.980;13.850;2023-03-05T03:27:30;10.30;;;2.53;;
18999;SDS011;9633;50.980;13.850;2023-03-05T03:29:03;8.40;;;2.40;;
18999;SDS011;9633;50.980;13.850;2023-03-05T03:30:36;5.13;;;2.20;;
18999;SDS011;9633;50.980;13.850;2023-03-05T03:32:08;9.73;;;2.60;;
18999;SDS011;9633;50.980;13.850;2023-03-05T03:33:42;9.07;;;2.07;;
18999;SDS011;9633;50.980;13.850;2023-03-05T03:35:14;4.43;;;2.00;;
18999;SDS011;9633;50.980;13.850;2023-03-05T03:36:48;8.87;;;2.30;;
18999;SDS011;9633;50.980;13.850;2023-03-05T03:38:23;11.00;;;2.30;;
18999;SDS011;9633;50.980;13.850;2023-03-05T03:39:57;8.77;;;2.53;;
18999;SDS011;9633;50.980;13.850;2023-03-05T03:41:30;7.53;;;2.07;;
18999;SDS011;9633;50.980;13.850;2023-03-05T03:43:04;7.93;;;2.13;;
18999;SDS011;9633;50.980;13.850;2023-03-05T03:44:36;7.47;;;2.20;;
18999;SDS011;9633;50.980;13.850;2023-03-05T03:46:09;10.20;;;2.47;;
18999;SDS011;9633;50.980;13.850;2023-03-05T03:47:42;7.53;;;2.40;;
18999;SDS011;9633;50.980;13.850;2023-03-05T03:49:15;6.93;;;2.20;;
18999;SDS011;9633;50.980;13.850;2023-03-05T03:50:50;8.37;;;2.50;;
18999;SDS011;9633;50.980;13.850;2023-03-05T03:52:23;9.20;;;2.20;;
18999;SDS011;9633;50.980;13.850;2023-03-05T03:53:56;8.47;;;2.50;;
18999;SDS011;9633;50.980;13.850;2023-03-05T03:55:31;9.73;;;2.23;;
18999;SDS011;9633;50.980;13.850;2023-03-05T03:57:04;8.63;;;2.00;;
18999;SDS011;9633;50.980;13.850;2023-03-05T03:58:37;5.87;;;1.90;;
18999;SDS011;9633;50.980;13.850;2023-03-05T04:00:11;8.50;;;2.70;;
18999;SDS011;9633;50.980;13.850;2023-03-05T04:01:45;5.90;;;2.20;;
18999;SDS011;9633;50.980;13.850;2023-03-05T04:03:18;9.10;;;2.10;;
18999;SDS011;9633;50.980;13.850;2023-03-05T04:04:51;4.10;;;1.80;;
18999;SDS011;9633;50.980;13.850;2023-03-05T04:06:24;6.00;;;2.20;;
18999;SDS011;9633;50.980;13.850;2023-03-05T04:07:57;7.80;;;2.20;;
18999;SDS011;9633;50.980;13.850;2023-03-05T04:09:31;7.73;;;2.10;;
18999;SDS011;9633;50.980;13.850;2023-03-05T04:11:06;8.63;;;2.30;;
18999;SDS011;9633;50.980;13.850;2023-03-05T04:12:40;6.40;;;1.90;;
18999;SDS011;9633;50.980;13.850;2023-03-05T04:14:13;5.70;;;1.80;;
18999;SDS011;9633;50.980;13.850;2023-03-05T04:15:46;7.20;;;1.80;;
18999;SDS011;9633;50.980;13.850;2023-03-05T04:17:20;7.97;;;2.10;;
18999;SDS011;9633;50.980;13.850;2023-03-05T04:18:52;3.37;;;1.70;;
18999;SDS011;9633;50.980;13.850;2023-03-05T04:20:26;6.77;;;1.70;;
18999;SDS011;9633;50.980;13.850;2023-03-05T04:21:59;5.40;;;1.77;;
18999;SDS011;9633;50.980;13.850;2023-03-05T04:23:31;6.77;;;1.83;;
18999;SDS011;9633;50.980;13.850;2023-03-05T04:25:04;4.13;;;1.50;;
18999;SDS011;9633;50.980;13.850;2023-03-05T04:26:40;4.23;;;1.50;;
18999;SDS011;9633;50.980;13.850;2023-03-05T04:28:13;4.67;;;1.67;;
18999;SDS011;9633;50.980;13.850;2023-03-05T04:29:46;3.63;;;1.33;;
18999;SDS011;9633;50.980;13.850;2023-03-05T04:31:19;5.33;;;1.37;;
18999;SDS011;9633;50.980;13.850;2023-03-05T04:32:52;6.07;;;1.50;;
18999;SDS011;9633;50.980;13.850;2023-03-05T04:34:25;6.40;;;2.00;;
18999;SDS011;9633;50.980;13.850;2023-03-05T04:35:58;3.83;;;1.40;;
18999;SDS011;9633;50.980;13.850;2023-03-05T04:37:31;4.57;;;1.50;;
18999;SDS011;9633;50.980;13.850;2023-03-05T04:39:03;6.67;;;1.60;;
18999;SDS011;9633;50.980;13.850;2023-03-05T04:40:36;6.30;;;1.70;;
18999;SDS011;9633;50.980;13.850;2023-03-05T04:42:11;4.63;;;1.50;;
18999;SDS011;9633;50.980;13.850;2023-03-05T04:43:44;5.97;;;1.53;;
18999;SDS011;9633;50.980;13.850;2023-03-05T04:45:17;7.60;;;1.60;;
18999;SDS011;9633;50.980;13.850;2023-03-05T04:46:51;5.13;;;1.37;;
18999;SDS011;9633;50.980;13.850;2023-03-05T04:48:24;5.50;;;1.73;;
18999;SDS011;9633;50.980;13.850;2023-03-05T04:49:57;5.43;;;1.60;;
18999;SDS011;9633;50.980;13.850;2023-03-05T04:51:30;6.07;;;1.43;;
18999;SDS011;9633;50.980;13.850;2023-03-05T04:53:04;4.00;;;1.57;;
18999;SDS011;9633;50.980;13.850;2023-03-05T04:54:37;4.57;;;1.70;;
18999;SDS011;9633;50.980;13.850;2023-03-05T04:56:10;4.37;;;1.40;;
18999;SDS011;9633;50.980;13.850;2023-03-05T04:57:44;6.30;;;1.60;;
18999;SDS011;9633;50.980;13.850;2023-03-05T04:59:17;7.73;;;1.77;;
18999;SDS011;9633;50.980;13.850;2023-03-05T05:00:50;6.17;;;2.30;;
18999;SDS011;9633;50.980;13.850;2023-03-05T05:02:23;5.97;;;1.70;;
18999;SDS011;9633;50.980;13.850;2023-03-05T05:03:55;3.27;;;1.50;;
18999;SDS011;9633;50.980;13.850;2023-03-05T05:05:28;5.87;;;1.63;;
18999;SDS011;9633;50.980;13.850;2023-03-05T05:07:02;5.87;;;1.63;;
18999;SDS011;9633;50.980;13.850;2023-03-05T05:08:37;8.70;;;1.90;;
18999;SDS011;9633;50.980;13.850;2023-03-05T05:10:11;5.57;;;1.63;;
18999;SDS011;9633;50.980;13.850;2023-03-05T05:11:44;6.47;;;1.90;;
18999;SDS011;9633;50.980;13.850;2023-03-05T05:13:18;6.23;;;2.07;;
18999;SDS011;9633;50.980;13.850;2023-03-05T05:14:51;8.10;;;2.00;;
18999;SDS011;9633;50.980;13.850;2023-03-05T05:16:24;7.77;;;2.13;;
18999;SDS011;9633;50.980;13.850;2023-03-05T05:17:58;6.70;;;2.17;;
18999;SDS011;9633;50.980;13.850;2023-03-05T05:19:31;5.33;;;1.93;;
18999;SDS011;9633;50.980;13.850;2023-03-05T05:21:07;4.63;;;2.07;;
18999;SDS011;9633;50.980;13.850;2023-03-05T05:22:42;7.77;;;2.10;;
18999;SDS011;9633;50.980;13.850;2023-03-05T05:24:14;5.87;;;2.40;;
18999;SDS011;9633;50.980;13.850;2023-03-05T05:25:54;4.77;;;2.20;;
18999;SDS011;9633;50.980;13.850;2023-03-05T05:27:28;6.00;;;2.50;;
18999;SDS011;9633;50.980;13.850;2023-03-05T05:29:02;5.17;;;2.50;;
18999;SDS011;9633;50.980;13.850;2023-03-05T05:30:35;7.93;;;2.40;;
18999;SDS011;9633;50.980;13.850;2023-03-05T05:32:08;3.63;;;2.57;;
18999;SDS011;9633;50.980;13.850;2023-03-05T05:33:41;8.63;;;2.43;;
18999;SDS011;9633;50.980;13.850;2023-03-05T05:35:14;5.47;;;2.77;;
18999;SDS011;9633;50.980;13.850;2023-03-05T05:36:48;4.60;;;2.70;;
18999;SDS011;9633;50.980;13.850;2023-03-05T05:38:20;4.23;;;2.70;;
18999;SDS011;9633;50.980;13.850;2023-03-05T05:39:53;7.93;;;2.87;;
18999;SDS011;9633;50.980;13.850;2023-03-05T05:41:26;5.80;;;2.73;;
18999;SDS011;9633;50.980;13.850;2023-03-05T05:42:59;5.43;;;3.03;;
18999;SDS011;9633;50.980;13.850;2023-03-05T05:44:33;7.40;;;2.90;;
18999;SDS011;9633;50.980;13.850;2023-03-05T05:46:09;5.20;;;2.90;;
18999;SDS011;9633;50.980;13.850;2023-03-05T05:47:43;4.30;;;2.40;;
18999;SDS011;9633;50.980;13.850;2023-03-05T05:49:16;5.77;;;2.70;;
18999;SDS011;9633;50.980;13.850;2023-03-05T05:50:49;6.63;;;2.47;;
18999;SDS011;9633;50.980;13.850;2023-03-05T05:52:23;3.97;;;2.30;;
18999;SDS011;9633;50.980;13.850;2023-03-05T05:53:56;5.37;;;2.60;;
18999;SDS011;9633;50.980;13.850;2023-03-05T05:55:29;4.57;;;2.20;;
18999;SDS011;9633;50.980;13.850;2023-03-05T05:57:01;6.77;;;2.73;;
18999;SDS011;9633;50.980;13.850;2023-03-05T05:58:35;6.17;;;2.20;;
18999;SDS011;9633;50.980;13.850;2023-03-05T06:00:11;6.23;;;2.37;;
18999;SDS011;9633;50.980;13.850;2023-03-05T06:01:45;5.17;;;2.50;;
18999;SDS011;9633;50.980;13.850;2023-03-05T06:03:19;7.07;;;2.17;;
18999;SDS011;9633;50.980;13.850;2023-03-05T06:04:52;5.93;;;2.50;;
18999;SDS011;9633;50.980;13.850;2023-03-05T06:06:28;5.67;;;2.77;;
18999;SDS011;9633;50.980;13.850;2023-03-05T06:08:02;4.83;;;2.10;;
18999;SDS011;9633;50.980;13.850;2023-03-05T06:09:35;6.50;;;2.67;;
18999;SDS011;9633;50.980;13.850;2023-03-05T06:11:09;5.20;;;2.53;;
18999;SDS011;9633;50.980;13.850;2023-03-05T06:12:42;6.83;;;2.50;;
18999;SDS011;9633;50.980;13.850;2023-03-05T06:14:15;5.53;;;2.47;;
18999;SDS011;9633;50.980;13.850;2023-03-05T06:15:57;5.00;;;2.10;;
18999;SDS011;9633;50.980;13.850;2023-03-05T06:17:30;3.83;;;2.00;;
18999;SDS011;9633;50.980;13.850;2023-03-05T06:19:03;7.80;;;2.33;;
18999;SDS011;9633;50.980;13.850;2023-03-05T06:20:37;4.13;;;2.20;;
18999;SDS011;9633;50.980;13.850;2023-03-05T06:22:09;6.27;;;2.23;;
18999;SDS011;9633;50.980;13.850;2023-03-05T06:23:43;4.77;;;2.10;;
18999;SDS011;9633;50.980;13.850;2023-03-05T06:25:16;3.57;;;1.87;;
18999;SDS011;9633;50.980;13.850;2023-03-05T06:26:50;3.20;;;1.80;;
18999;SDS011;9633;50.980;13.850;2023-03-05T06:28:23;3.63;;;2.10;;
18999;SDS011;9633;50.980;13.850;2023-03-05T06:29:56;3.63;;;1.90;;
18999;SDS011;9633;50.980;13.850;2023-03-05T06:31:31;7.67;;;2.07;;
18999;SDS011;9633;50.980;13.850;2023-03-05T06:33:07;4.87;;;1.97;;
18999;SDS011;9633;50.980;13.850;2023-03-05T06:34:40;7.87;;;1.80;;
18999;SDS011;9633;50.980;13.850;2023-03-05T06:36:15;3.63;;;1.50;;
18999;SDS011;9633;50.980;13.850;2023-03-05T06:37:49;2.63;;;1.50;;
18999;SDS011;9633;50.980;13.850;2023-03-05T06:39:23;5.73;;;1.90;;
18999;SDS011;9633;50.980;13.850;2023-03-05T06:40:59;6.20;;;1.87;;
18999;SDS011;9633;50.980;13.850;2023-03-05T06:42:33;3.33;;;1.73;;
18999;SDS011;9633;50.980;13.850;2023-03-05T06:44:06;2.67;;;1.60;;
18999;SDS011;9633;50.980;13.850;2023-03-05T06:45:39;2.13;;;1.50;;
18999;SDS011;9633;50.980;13.850;2023-03-05T06:47:13;4.40;;;1.70;;
18999;SDS011;9633;50.980;13.850;2023-03-05T06:48:47;3.03;;;1.60;;
18999;SDS011;9633;50.980;13.850;2023-03-05T06:50:21;1.93;;;1.50;;
18999;SDS011;9633;50.980;13.850;2023-03-05T06:51:54;3.17;;;1.60;;
18999;SDS011;9633;50.980;13.850;2023-03-05T06:53:27;2.23;;;1.47;;
18999;SDS011;9633;50.980;13.850;2023-03-05T06:55:03;2.63;;;1.70;;
18999;SDS011;9633;50.980;13.850;2023-03-05T06:56:37;1.93;;;1.43;;
18999;SDS011;9633;50.980;13.850;2023-03-05T06:58:11;2.63;;;1.30;;
18999;SDS011;9633;50.980;13.850;2023-03-05T06:59:44;2.43;;;1.70;;
18999;SDS011;9633;50.980;13.850;2023-03-05T07:01:18;3.97;;;1.87;;
18999;SDS011;9633;50.980;13.850;2023-03-05T07:02:52;1.63;;;1.40;;
18999;SDS011;9633;50.980;13.850;2023-03-05T07:04:25;3.30;;;1.70;;
18999;SDS011;9633;50.980;13.850;2023-03-05T07:06:00;4.87;;;1.50;;
18999;SDS011;9633;50.980;13.850;2023-03-05T07:07:34;2.20;;;1.40;;
18999;SDS011;9633;50.980;13.850;2023-03-05T07:09:07;3.07;;;1.20;;
18999;SDS011;9633;50.980;13.850;2023-03-05T07:10:43;2.60;;;1.10;;
18999;SDS011;9633;50.980;13.850;2023-03-05T07:12:16;3.27;;;1.30;;
18999;SDS011;9633;50.980;13.850;2023-03-05T07:13:50;2.00;;;1.10;;
18999;SDS011;9633;50.980;13.850;2023-03-05T07:15:23;3.67;;;1.27;;
18999;SDS011;9633;50.980;13.850;2023-03-05T07:16:56;3.43;;;1.37;;
18999;SDS011;9633;50.980;13.850;2023-03-05T07:18:31;2.77;;;1.20;;
18999;SDS011;9633;50.980;13.850;2023-03-05T07:20:04;3.40;;;1.30;;
18999;SDS011;9633;50.980;13.850;2023-03-05T07:21:38;4.03;;;1.10;;
18999;SDS011;9633;50.980;13.850;2023-03-05T07:23:11;3.23;;;1.10;;
18999;SDS011;9633;50.980;13.850;2023-03-05T07:24:45;4.47;;;1.40;;
18999;SDS011;9633;50.980;13.850;2023-03-05T07:26:18;3.17;;;1.23;;
18999;SDS011;9633;50.980;13.850;2023-03-05T07:27:51;3.40;;;1.30;;
18999;SDS011;9633;50.980;13.850;2023-03-05T07:29:25;4.93;;;1.40;;
18999;SDS011;9633;50.980;13.850;2023-03-05T07:30:59;2.40;;;1.30;;
18999;SDS011;9633;50.980;13.850;2023-03-05T07:32:34;2.83;;;1.40;;
18999;SDS011;9633;50.980;13.850;2023-03-05T07:34:09;2.20;;;1.20;;
18999;SDS011;9633;50.980;13.850;2023-03-05T07:35:42;2.83;;;1.73;;
18999;SDS011;9633;50.980;13.850;2023-03-05T07:37:14;3.60;;;1.63;;
18999;SDS011;9633;50.980;13.850;2023-03-05T07:38:47;1.73;;;1.00;;
18999;SDS011;9633;50.980;13.850;2023-03-05T07:40:20;1.80;;;1.20;;
18999;SDS011;9633;50.980;13.850;2023-03-05T07:41:54;2.13;;;1.30;;
18999;SDS011;9633;50.980;13.850;2023-03-05T07:43:33;3.53;;;1.20;;
18999;SDS011;9633;50.980;13.850;2023-03-05T07:45:06;2.47;;;1.03;;
18999;SDS011;9633;50.980;13.850;2023-03-05T07:46:40;3.43;;;1.20;;
18999;SDS011;9633;50.980;13.850;2023-03-05T07:48:14;3.30;;;1.33;;
18999;SDS011;9633;50.980;13.850;2023-03-05T07:49:52;1.33;;;1.00;;
18999;SDS011;9633;50.980;13.850;2023-03-05T07:51:26;3.73;;;1.20;;
18999;SDS011;9633;50.980;13.850;2023-03-05T07:52:59;2.80;;;1.10;;
18999;SDS011;9633;50.980;13.850;2023-03-05T07:54:32;2.40;;;1.20;;
18999;SDS011;9633;50.980;13.850;2023-03-05T07:56:07;2.70;;;1.20;;
18999;SDS011;9633;50.980;13.850;2023-03-05T07:57:41;2.30;;;1.00;;
18999;SDS011;9633;50.980;13.850;2023-03-05T07:59:14;2.10;;;1.37;;
18999;SDS011;9633;50.980;13.850;2023-03-05T08:00:47;3.90;;;1.60;;
18999;SDS011;9633;50.980;13.850;2023-03-05T08:02:20;2.50;;;1.40;;
18999;SDS011;9633;50.980;13.850;2023-03-05T08:03:53;3.53;;;1.70;;
18999;SDS011;9633;50.980;13.850;2023-03-05T08:05:28;4.33;;;1.50;;
18999;SDS011;9633;50.980;13.850;2023-03-05T08:07:01;2.60;;;1.67;;
18999;SDS011;9633;50.980;13.850;2023-03-05T08:08:35;2.43;;;1.60;;
18999;SDS011;9633;50.980;13.850;2023-03-05T08:10:07;4.30;;;2.10;;
18999;SDS011;9633;50.980;13.850;2023-03-05T08:11:42;4.20;;;1.60;;
18999;SDS011;9633;50.980;13.850;2023-03-05T08:13:15;6.00;;;1.90;;
18999;SDS011;9633;50.980;13.850;2023-03-05T08:14:48;3.20;;;1.73;;
18999;SDS011;9633;50.980;13.850;2023-03-05T08:16:22;2.70;;;1.70;;
18999;SDS011;9633;50.980;13.850;2023-03-05T08:17:56;4.87;;;1.87;;
18999;SDS011;9633;50.980;13.850;2023-03-05T08:19:29;2.33;;;1.40;;
18999;SDS011;9633;50.980;13.850;2023-03-05T08:21:04;3.67;;;1.60;;
18999;SDS011;9633;50.980;13.850;2023-03-05T08:22:38;3.50;;;1.40;;
18999;SDS011;9633;50.980;13.850;2023-03-05T08:24:11;4.40;;;1.57;;
18999;SDS011;9633;50.980;13.850;2023-03-05T08:25:45;4.23;;;1.23;;
18999;SDS011;9633;50.980;13.850;2023-03-05T08:27:18;3.63;;;1.53;;
18999;SDS011;9633;50.980;13.850;2023-03-05T08:28:51;2.93;;;1.57;;
18999;SDS011;9633;50.980;13.850;2023-03-05T08:30:24;2.50;;;1.33;;
18999;SDS011;9633;50.980;13.850;2023-03-05T08:31:58;2.47;;;1.40;;
18999;SDS011;9633;50.980;13.850;2023-03-05T08:33:31;5.60;;;1.90;;
18999;SDS011;9633;50.980;13.850;2023-03-05T08:35:06;2.60;;;1.60;;
18999;SDS011;9633;50.980;13.850;2023-03-05T08:36:41;3.17;;;1.70;;
18999;SDS011;9633;50.980;13.850;2023-03-05T08:38:14;2.90;;;2.20;;
18999;SDS011;9633;50.980;13.850;2023-03-05T08:39:51;4.03;;;1.80;;
18999;SDS011;9633;50.980;13.850;2023-03-05T08:41:24;2.40;;;1.70;;
18999;SDS011;9633;50.980;13.850;2023-03-05T08:42:57;2.73;;;1.53;;
18999;SDS011;9633;50.980;13.850;2023-03-05T08:44:31;3.00;;;1.67;;
18999;SDS011;9633;50.980;13.850;2023-03-05T08:46:04;3.57;;;1.60;;
18999;SDS011;9633;50.980;13.850;2023-03-05T08:47:37;2.73;;;1.57;;
18999;SDS011;9633;50.980;13.850;2023-03-05T08:49:10;2.27;;;1.27;;
18999;SDS011;9633;50.980;13.850;2023-03-05T08:50:44;3.43;;;1.70;;
18999;SDS011;9633;50.980;13.850;2023-03-05T08:52:18;3.43;;;1.60;;
18999;SDS011;9633;50.980;13.850;2023-03-05T08:53:52;3.27;;;1.60;;
18999;SDS011;9633;50.980;13.850;2023-03-05T08:55:26;3.03;;;2.00;;
18999;SDS011;9633;50.980;13.850;2023-03-05T08:56:59;3.93;;;1.77;;
18999;SDS011;9633;50.980;13.850;2023-03-05T08:58:32;3.23;;;1.63;;
18999;SDS011;9633;50.980;13.850;2023-03-05T09:00:06;2.80;;;1.80;;
18999;SDS011;9633;50.980;13.850;2023-03-05T09:01:40;3.77;;;1.70;;
18999;SDS011;9633;50.980;13.850;2023-03-05T09:03:13;3.27;;;1.90;;
18999;SDS011;9633;50.980;13.850;2023-03-05T09:04:46;2.37;;;1.77;;
18999;SDS011;9633;50.980;13.850;2023-03-05T09:06:19;4.30;;;2.03;;
18999;SDS011;9633;50.980;13.850;2023-03-05T09:07:54;5.23;;;2.10;;
18999;SDS011;9633;50.980;13.850;2023-03-05T09:09:27;3.63;;;1.97;;
18999;SDS011;9633;50.980;13.850;2023-03-05T09:11:03;3.10;;;2.03;;
18999;SDS011;9633;50.980;13.850;2023-03-05T09:12:37;4.17;;;2.30;;
18999;SDS011;9633;50.980;13.850;2023-03-05T09:14:10;4.37;;;2.30;;
18999;SDS011;9633;50.980;13.850;2023-03-05T09:15:43;3.00;;;2.20;;
18999;SDS011;9633;50.980;13.850;2023-03-05T09:17:17;4.50;;;2.77;;
18999;SDS011;9633;50.980;13.850;2023-03-05T09:18:50;3.73;;;2.40;;
18999;SDS011;9633;50.980;13.850;2023-03-05T09:20:23;5.43;;;2.53;;
18999;SDS011;9633;50.980;13.850;2023-03-05T09:21:55;4.07;;;2.33;;